sensor_id;sensor_type;location;lat;lon;timestamp;P1;durP1;ratioP1;P2;durP2;ratioP2
9904;SDS011;4991;43.566;27.820;2023-05-07T00:01:01;4.73;;;3.40;;
9904;SDS011;4991;43.566;27.820;2023-05-07T00:03:27;6.17;;;3.30;;
9904;SDS011;4991;43.566;27.820;2023-05-07T00:05:53;5.93;;;3.67;;
9904;SDS011;4991;43.566;27.820;2023-05-07T00:08:19;6.63;;;3.87;;
9904;SDS011;4991;43.566;27.820;2023-05-07T00:10:45;6.33;;;3.73;;
9904;SDS011;4991;43.566;27.820;2023-05-07T00:13:11;4.83;;;3.50;;
9904;SDS011;4991;43.566;27.820;2023-05-07T00:15:37;5.27;;;3.63;;
9904;SDS011;4991;43.566;27.820;2023-05-07T00:18:03;10.43;;;3.17;;
9904;SDS011;4991;43.566;27.820;2023-05-07T00:20:28;3.83;;;3.30;;
9904;SDS011;4991;43.566;27.820;2023-05-07T00:22:54;5.97;;;3.53;;
9904;SDS011;4991;43.566;27.820;2023-05-07T00:25:20;5.90;;;3.03;;
9904;SDS011;4991;43.566;27.820;2023-05-07T00:27:45;4.30;;;3.50;;
9904;SDS011;4991;43.566;27.820;2023-05-07T00:30:11;4.33;;;3.57;;
9904;SDS011;4991;43.566;27.820;2023-05-07T00:32:37;4.77;;;4.00;;
9904;SDS011;4991;43.566;27.820;2023-05-07T00:35:04;8.40;;;3.63;;
9904;SDS011;4991;43.566;27.820;2023-05-07T00:37:30;6.47;;;3.73;;
9904;SDS011;4991;43.566;27.820;2023-05-07T00:39:56;6.00;;;3.40;;
9904;SDS011;4991;43.566;27.820;2023-05-07T00:42:22;6.27;;;3.33;;
9904;SDS011;4991;43.566;27.820;2023-05-07T00:44:47;5.87;;;3.97;;
9904;SDS011;4991;43.566;27.820;2023-05-07T00:47:13;4.47;;;3.57;;
9904;SDS011;4991;43.566;27.820;2023-05-07T00:49:42;4.53;;;3.40;;
9904;SDS011;4991;43.566;27.820;2023-05-07T00:52:11;6.67;;;3.70;;
9904;SDS011;4991;43.566;27.820;2023-05-07T00:54:38;10.90;;;3.53;;
9904;SDS011;4991;43.566;27.820;2023-05-07T00:57:05;4.90;;;3.00;;
9904;SDS011;4991;43.566;27.820;2023-05-07T00:59:31;6.50;;;3.23;;
9904;SDS011;4991;43.566;27.820;2023-05-07T01:01:58;5.20;;;3.30;;
9904;SDS011;4991;43.566;27.820;2023-05-07T01:04:25;8.17;;;3.70;;
9904;SDS011;4991;43.566;27.820;2023-05-07T01:06:52;4.20;;;3.03;;
9904;SDS011;4991;43.566;27.820;2023-05-07T01:09:21;4.30;;;3.13;;
9904;SDS011;4991;43.566;27.820;2023-05-07T01:11:49;4.47;;;3.30;;
9904;SDS011;4991;43.566;27.820;2023-05-07T01:14:16;5.17;;;4.13;;
9904;SDS011;4991;43.566;27.820;2023-05-07T01:16:43;4.53;;;3.33;;
9904;SDS011;4991;43.566;27.820;2023-05-07T01:19:09;4.80;;;3.30;;
9904;SDS011;4991;43.566;27.820;2023-05-07T01:21:42;3.40;;;3.10;;
9904;SDS011;4991;43.566;27.820;2023-05-07T01:24:11;4.13;;;3.10;;
9904;SDS011;4991;43.566;27.820;2023-05-07T01:26:37;4.17;;;3.40;;
9904;SDS011;4991;43.566;27.820;2023-05-07T01:29:03;5.40;;;2.93;;
9904;SDS011;4991;43.566;27.820;2023-05-07T01:31:29;7.47;;;3.33;;
9904;SDS011;4991;43.566;27.820;2023-05-07T01:33:55;6.17;;;3.47;;
9904;SDS011;4991;43.566;27.820;2023-05-07T01:36:22;4.43;;;3.10;;
9904;SDS011;4991;43.566;27.820;2023-05-07T01:38:51;3.73;;;2.80;;
9904;SDS011;4991;43.566;27.820;2023-05-07T01:41:18;4.20;;;3.13;;
9904;SDS011;4991;43.566;27.820;2023-05-07T01:43:45;2.87;;;2.50;;
9904;SDS011;4991;43.566;27.820;2023-05-07T01:46:12;4.43;;;3.00;;
9904;SDS011;4991;43.566;27.820;2023-05-07T01:48:38;10.00;;;3.33;;
9904;SDS011;4991;43.566;27.820;2023-05-07T01:51:05;4.10;;;3.30;;
9904;SDS011;4991;43.566;27.820;2023-05-07T01:53:37;7.20;;;3.37;;
9904;SDS011;4991;43.566;27.820;2023-05-07T01:56:04;5.43;;;3.00;;
9904;SDS011;4991;43.566;27.820;2023-05-07T01:58:30;6.77;;;3.43;;
9904;SDS011;4991;43.566;27.820;2023-05-07T02:00:56;4.73;;;3.90;;
9904;SDS011;4991;43.566;27.820;2023-05-07T02:03:21;3.40;;;3.07;;
9904;SDS011;4991;43.566;27.820;2023-05-07T02:05:47;4.90;;;3.27;;
9904;SDS011;4991;43.566;27.820;2023-05-07T02:08:13;4.27;;;3.03;;
9904;SDS011;4991;43.566;27.820;2023-05-07T02:10:38;5.43;;;3.23;;
9904;SDS011;4991;43.566;27.820;2023-05-07T02:13:04;5.17;;;2.77;;
9904;SDS011;4991;43.566;27.820;2023-05-07T02:15:30;7.17;;;3.10;;
9904;SDS011;4991;43.566;27.820;2023-05-07T02:18:05;5.57;;;3.40;;
9904;SDS011;4991;43.566;27.820;2023-05-07T02:20:33;8.20;;;3.27;;
9904;SDS011;4991;43.566;27.820;2023-05-07T02:22:58;9.70;;;3.43;;
9904;SDS011;4991;43.566;27.820;2023-05-07T02:25:24;11.30;;;3.87;;
9904;SDS011;4991;43.566;27.820;2023-05-07T02:27:49;4.10;;;2.87;;
9904;SDS011;4991;43.566;27.820;2023-05-07T02:30:15;6.07;;;3.13;;
9904;SDS011;4991;43.566;27.820;2023-05-07T02:32:41;4.10;;;2.70;;
9904;SDS011;4991;43.566;27.820;2023-05-07T02:35:06;7.50;;;3.13;;
9904;SDS011;4991;43.566;27.820;2023-05-07T02:37:32;6.90;;;3.30;;
9904;SDS011;4991;43.566;27.820;2023-05-07T02:39:58;9.60;;;3.17;;
9904;SDS011;4991;43.566;27.820;2023-05-07T02:42:23;3.80;;;2.57;;
9904;SDS011;4991;43.566;27.820;2023-05-07T02:44:49;6.67;;;3.10;;
9904;SDS011;4991;43.566;27.820;2023-05-07T02:47:14;5.73;;;2.20;;
9904;SDS011;4991;43.566;27.820;2023-05-07T02:49:40;4.13;;;2.63;;
9904;SDS011;4991;43.566;27.820;2023-05-07T02:52:06;7.57;;;2.43;;
9904;SDS011;4991;43.566;27.820;2023-05-07T02:54:32;2.60;;;1.77;;
9904;SDS011;4991;43.566;27.820;2023-05-07T02:56:57;1.83;;;1.67;;
9904;SDS011;4991;43.566;27.820;2023-05-07T02:59:23;6.17;;;2.43;;
9904;SDS011;4991;43.566;27.820;2023-05-07T03:01:50;2.60;;;1.93;;
9904;SDS011;4991;43.566;27.820;2023-05-07T03:04:15;2.37;;;1.50;;
9904;SDS011;4991;43.566;27.820;2023-05-07T03:06:41;4.00;;;2.00;;
9904;SDS011;4991;43.566;27.820;2023-05-07T03:09:07;4.47;;;3.20;;
9904;SDS011;4991;43.566;27.820;2023-05-07T03:11:32;8.13;;;3.33;;
9904;SDS011;4991;43.566;27.820;2023-05-07T03:13:58;3.40;;;2.40;;
9904;SDS011;4991;43.566;27.820;2023-05-07T03:16:24;2.67;;;2.20;;
9904;SDS011;4991;43.566;27.820;2023-05-07T03:18:49;3.60;;;2.00;;
9904;SDS011;4991;43.566;27.820;2023-05-07T03:21:15;2.67;;;2.07;;
9904;SDS011;4991;43.566;27.820;2023-05-07T03:23:40;4.97;;;2.23;;
9904;SDS011;4991;43.566;27.820;2023-05-07T03:26:06;2.70;;;2.00;;
9904;SDS011;4991;43.566;27.820;2023-05-07T03:28:32;2.93;;;1.97;;
9904;SDS011;4991;43.566;27.820;2023-05-07T03:30:57;3.80;;;2.37;;
9904;SDS011;4991;43.566;27.820;2023-05-07T03:33:23;3.67;;;2.83;;
9904;SDS011;4991;43.566;27.820;2023-05-07T03:35:48;6.60;;;2.37;;
9904;SDS011;4991;43.566;27.820;2023-05-07T03:38:14;2.70;;;1.80;;
9904;SDS011;4991;43.566;27.820;2023-05-07T03:40:40;3.47;;;2.00;;
9904;SDS011;4991;43.566;27.820;2023-05-07T03:43:06;3.00;;;1.80;;
9904;SDS011;4991;43.566;27.820;2023-05-07T03:45:31;2.40;;;1.80;;
9904;SDS011;4991;43.566;27.820;2023-05-07T03:47:57;2.73;;;2.03;;
9904;SDS011;4991;43.566;27.820;2023-05-07T03:50:22;3.00;;;1.63;;
9904;SDS011;4991;43.566;27.820;2023-05-07T03:52:48;3.40;;;1.70;;
9904;SDS011;4991;43.566;27.820;2023-05-07T03:55:14;3.57;;;2.00;;
9904;SDS011;4991;43.566;27.820;2023-05-07T03:57:39;4.03;;;1.87;;
9904;SDS011;4991;43.566;27.820;2023-05-07T04:00:05;2.07;;;1.87;;
9904;SDS011;4991;43.566;27.820;2023-05-07T04:02:32;2.13;;;1.70;;
9904;SDS011;4991;43.566;27.820;2023-05-07T04:04:58;1.97;;;1.50;;
9904;SDS011;4991;43.566;27.820;2023-05-07T04:07:24;4.70;;;1.67;;
9904;SDS011;4991;43.566;27.820;2023-05-07T04:09:49;2.03;;;1.67;;
9904;SDS011;4991;43.566;27.820;2023-05-07T04:12:15;4.00;;;2.30;;
9904;SDS011;4991;43.566;27.820;2023-05-07T04:14:40;4.73;;;2.40;;
9904;SDS011;4991;43.566;27.820;2023-05-07T04:17:06;5.70;;;2.20;;
9904;SDS011;4991;43.566;27.820;2023-05-07T04:19:34;2.67;;;2.07;;
9904;SDS011;4991;43.566;27.820;2023-05-07T04:22:01;6.30;;;2.30;;
9904;SDS011;4991;43.566;27.820;2023-05-07T04:24:27;5.33;;;2.23;;
9904;SDS011;4991;43.566;27.820;2023-05-07T04:26:53;3.40;;;2.13;;
9904;SDS011;4991;43.566;27.820;2023-05-07T04:29:20;3.23;;;1.93;;
9904;SDS011;4991;43.566;27.820;2023-05-07T04:31:46;10.40;;;2.50;;
9904;SDS011;4991;43.566;27.820;2023-05-07T04:34:11;2.83;;;2.13;;
9904;SDS011;4991;43.566;27.820;2023-05-07T04:36:40;5.20;;;2.20;;
9904;SDS011;4991;43.566;27.820;2023-05-07T04:39:07;3.57;;;2.33;;
9904;SDS011;4991;43.566;27.820;2023-05-07T04:41:33;2.37;;;1.77;;
9904;SDS011;4991;43.566;27.820;2023-05-07T04:44:01;2.10;;;1.87;;
9904;SDS011;4991;43.566;27.820;2023-05-07T04:46:28;6.00;;;2.50;;
9904;SDS011;4991;43.566;27.820;2023-05-07T04:48:54;3.00;;;2.20;;
9904;SDS011;4991;43.566;27.820;2023-05-07T04:51:20;6.07;;;2.43;;
9904;SDS011;4991;43.566;27.820;2023-05-07T04:53:45;5.50;;;2.20;;
9904;SDS011;4991;43.566;27.820;2023-05-07T04:56:11;2.93;;;2.20;;
9904;SDS011;4991;43.566;27.820;2023-05-07T04:58:37;4.73;;;2.37;;
9904;SDS011;4991;43.566;27.820;2023-05-07T05:01:02;2.37;;;2.10;;
9904;SDS011;4991;43.566;27.820;2023-05-07T05:03:28;2.90;;;2.17;;
9904;SDS011;4991;43.566;27.820;2023-05-07T05:05:53;3.10;;;2.10;;
9904;SDS011;4991;43.566;27.820;2023-05-07T05:08:19;3.60;;;2.23;;
9904;SDS011;4991;43.566;27.820;2023-05-07T05:10:45;6.50;;;2.30;;
9904;SDS011;4991;43.566;27.820;2023-05-07T05:13:10;2.57;;;1.83;;
9904;SDS011;4991;43.566;27.820;2023-05-07T05:15:38;2.93;;;2.00;;
9904;SDS011;4991;43.566;27.820;2023-05-07T05:18:03;3.47;;;1.90;;
9904;SDS011;4991;43.566;27.820;2023-05-07T05:20:29;6.30;;;2.20;;
9904;SDS011;4991;43.566;27.820;2023-05-07T05:22:55;3.53;;;2.13;;
9904;SDS011;4991;43.566;27.820;2023-05-07T05:25:20;4.47;;;2.30;;
9904;SDS011;4991;43.566;27.820;2023-05-07T05:27:46;3.23;;;1.90;;
9904;SDS011;4991;43.566;27.820;2023-05-07T05:30:12;3.97;;;2.10;;
9904;SDS011;4991;43.566;27.820;2023-05-07T05:32:38;5.33;;;2.07;;
9904;SDS011;4991;43.566;27.820;2023-05-07T05:35:03;2.97;;;1.97;;
9904;SDS011;4991;43.566;27.820;2023-05-07T05:37:29;2.53;;;1.90;;
9904;SDS011;4991;43.566;27.820;2023-05-07T05:39:56;1.60;;;1.40;;
9904;SDS011;4991;43.566;27.820;2023-05-07T05:42:22;5.27;;;2.07;;
9904;SDS011;4991;43.566;27.820;2023-05-07T05:44:48;5.33;;;1.70;;
9904;SDS011;4991;43.566;27.820;2023-05-07T05:47:13;2.60;;;1.90;;
9904;SDS011;4991;43.566;27.820;2023-05-07T05:49:39;2.17;;;1.73;;
9904;SDS011;4991;43.566;27.820;2023-05-07T05:52:04;3.37;;;1.60;;
9904;SDS011;4991;43.566;27.820;2023-05-07T05:54:30;1.83;;;1.50;;
9904;SDS011;4991;43.566;27.820;2023-05-07T05:56:55;3.50;;;1.80;;
9904;SDS011;4991;43.566;27.820;2023-05-07T05:59:22;3.07;;;1.30;;
9904;SDS011;4991;43.566;27.820;2023-05-07T06:01:47;2.60;;;1.57;;
9904;SDS011;4991;43.566;27.820;2023-05-07T06:04:14;2.80;;;1.60;;
9904;SDS011;4991;43.566;27.820;2023-05-07T06:06:39;3.03;;;1.60;;
9904;SDS011;4991;43.566;27.820;2023-05-07T06:09:05;3.40;;;2.07;;
9904;SDS011;4991;43.566;27.820;2023-05-07T06:11:31;2.57;;;1.67;;
9904;SDS011;4991;43.566;27.820;2023-05-07T06:13:57;4.70;;;2.47;;
9904;SDS011;4991;43.566;27.820;2023-05-07T06:16:24;3.23;;;1.77;;
9904;SDS011;4991;43.566;27.820;2023-05-07T06:18:50;3.93;;;1.80;;
9904;SDS011;4991;43.566;27.820;2023-05-07T06:21:15;3.27;;;1.77;;
9904;SDS011;4991;43.566;27.820;2023-05-07T06:23:41;3.30;;;1.73;;
9904;SDS011;4991;43.566;27.820;2023-05-07T06:26:07;2.03;;;1.60;;
9904;SDS011;4991;43.566;27.820;2023-05-07T06:28:32;1.70;;;1.47;;
9904;SDS011;4991;43.566;27.820;2023-05-07T06:31:11;5.50;;;1.57;;
9904;SDS011;4991;43.566;27.820;2023-05-07T06:33:45;1.70;;;1.60;;
9904;SDS011;4991;43.566;27.820;2023-05-07T06:36:11;6.27;;;1.70;;
9904;SDS011;4991;43.566;27.820;2023-05-07T06:38:36;1.80;;;1.40;;
9904;SDS011;4991;43.566;27.820;2023-05-07T06:41:02;3.13;;;1.53;;
9904;SDS011;4991;43.566;27.820;2023-05-07T06:43:27;3.63;;;1.73;;
9904;SDS011;4991;43.566;27.820;2023-05-07T06:45:53;4.07;;;1.53;;
9904;SDS011;4991;43.566;27.820;2023-05-07T06:48:19;1.93;;;1.27;;
9904;SDS011;4991;43.566;27.820;2023-05-07T06:50:45;2.17;;;1.60;;
9904;SDS011;4991;43.566;27.820;2023-05-07T06:53:10;2.77;;;1.50;;
9904;SDS011;4991;43.566;27.820;2023-05-07T06:55:36;1.93;;;1.63;;
9904;SDS011;4991;43.566;27.820;2023-05-07T06:58:03;1.87;;;1.30;;
9904;SDS011;4991;43.566;27.820;2023-05-07T07:00:29;2.90;;;1.97;;
9904;SDS011;4991;43.566;27.820;2023-05-07T07:02:56;2.80;;;1.73;;
9904;SDS011;4991;43.566;27.820;2023-05-07T07:05:23;2.57;;;1.30;;
9904;SDS011;4991;43.566;27.820;2023-05-07T07:07:48;4.00;;;1.67;;
9904;SDS011;4991;43.566;27.820;2023-05-07T07:10:21;3.20;;;1.57;;
9904;SDS011;4991;43.566;27.820;2023-05-07T07:12:48;1.57;;;1.37;;
9904;SDS011;4991;43.566;27.820;2023-05-07T07:15:14;1.67;;;1.30;;
9904;SDS011;4991;43.566;27.820;2023-05-07T07:17:40;3.83;;;1.37;;
9904;SDS011;4991;43.566;27.820;2023-05-07T07:20:07;1.30;;;1.10;;
9904;SDS011;4991;43.566;27.820;2023-05-07T07:22:33;3.03;;;1.60;;
9904;SDS011;4991;43.566;27.820;2023-05-07T07:24:58;1.80;;;1.50;;
9904;SDS011;4991;43.566;27.820;2023-05-07T07:27:24;2.40;;;1.93;;
9904;SDS011;4991;43.566;27.820;2023-05-07T07:29:50;1.73;;;1.60;;
9904;SDS011;4991;43.566;27.820;2023-05-07T07:32:15;2.07;;;1.33;;
9904;SDS011;4991;43.566;27.820;2023-05-07T07:34:41;2.33;;;1.50;;
9904;SDS011;4991;43.566;27.820;2023-05-07T07:37:07;3.60;;;1.87;;
9904;SDS011;4991;43.566;27.820;2023-05-07T07:39:32;1.70;;;1.37;;
9904;SDS011;4991;43.566;27.820;2023-05-07T07:41:58;1.97;;;1.40;;
9904;SDS011;4991;43.566;27.820;2023-05-07T07:44:24;3.40;;;1.50;;
9904;SDS011;4991;43.566;27.820;2023-05-07T07:46:50;1.47;;;1.30;;
9904;SDS011;4991;43.566;27.820;2023-05-07T07:49:16;4.13;;;1.20;;
9904;SDS011;4991;43.566;27.820;2023-05-07T07:51:42;3.20;;;1.20;;
9904;SDS011;4991;43.566;27.820;2023-05-07T07:54:08;2.13;;;1.53;;
9904;SDS011;4991;43.566;27.820;2023-05-07T07:56:33;2.77;;;1.40;;
9904;SDS011;4991;43.566;27.820;2023-05-07T07:59:00;1.73;;;1.20;;
9904;SDS011;4991;43.566;27.820;2023-05-07T08:01:25;3.13;;;1.10;;
9904;SDS011;4991;43.566;27.820;2023-05-07T08:03:51;2.50;;;1.43;;
9904;SDS011;4991;43.566;27.820;2023-05-07T08:06:17;1.67;;;1.50;;
9904;SDS011;4991;43.566;27.820;2023-05-07T08:08:43;1.60;;;1.20;;
9904;SDS011;4991;43.566;27.820;2023-05-07T08:11:09;1.40;;;1.30;;
9904;SDS011;4991;43.566;27.820;2023-05-07T08:13:35;1.57;;;1.20;;
9904;SDS011;4991;43.566;27.820;2023-05-07T08:16:01;1.43;;;1.33;;
9904;SDS011;4991;43.566;27.820;2023-05-07T08:18:27;3.20;;;1.40;;
9904;SDS011;4991;43.566;27.820;2023-05-07T08:20:54;1.93;;;1.43;;
9904;SDS011;4991;43.566;27.820;2023-05-07T08:23:20;1.70;;;1.40;;
9904;SDS011;4991;43.566;27.820;2023-05-07T08:25:46;2.57;;;1.57;;
9904;SDS011;4991;43.566;27.820;2023-05-07T08:28:11;1.50;;;1.30;;
9904;SDS011;4991;43.566;27.820;2023-05-07T08:30:37;1.77;;;1.50;;
9904;SDS011;4991;43.566;27.820;2023-05-07T08:33:03;1.37;;;1.13;;
9904;SDS011;4991;43.566;27.820;2023-05-07T08:35:28;4.13;;;1.20;;
9904;SDS011;4991;43.566;27.820;2023-05-07T08:37:54;1.20;;;1.10;;
9904;SDS011;4991;43.566;27.820;2023-05-07T08:40:21;2.87;;;1.40;;
9904;SDS011;4991;43.566;27.820;2023-05-07T08:42:52;2.70;;;1.67;;
9904;SDS011;4991;43.566;27.820;2023-05-07T08:45:18;1.33;;;1.23;;
9904;SDS011;4991;43.566;27.820;2023-05-07T08:47:50;1.30;;;1.17;;
9904;SDS011;4991;43.566;27.820;2023-05-07T08:50:21;3.70;;;1.20;;
9904;SDS011;4991;43.566;27.820;2023-05-07T08:52:47;1.73;;;1.10;;
9904;SDS011;4991;43.566;27.820;2023-05-07T08:55:13;2.77;;;1.40;;
9904;SDS011;4991;43.566;27.820;2023-05-07T08:57:38;3.23;;;1.20;;
9904;SDS011;4991;43.566;27.820;2023-05-07T09:00:04;1.10;;;1.00;;
9904;SDS011;4991;43.566;27.820;2023-05-07T09:02:32;1.83;;;1.30;;
9904;SDS011;4991;43.566;27.820;2023-05-07T09:05:00;3.43;;;1.20;;
9904;SDS011;4991;43.566;27.820;2023-05-07T09:07:25;2.20;;;1.57;;
9904;SDS011;4991;43.566;27.820;2023-05-07T09:09:52;1.53;;;1.30;;
9904;SDS011;4991;43.566;27.820;2023-05-07T09:12:20;1.33;;;1.23;;
9904;SDS011;4991;43.566;27.820;2023-05-07T09:14:46;1.63;;;1.40;;
9904;SDS011;4991;43.566;27.820;2023-05-07T09:17:12;1.77;;;1.17;;
9904;SDS011;4991;43.566;27.820;2023-05-07T09:19:38;1.77;;;1.30;;
9904;SDS011;4991;43.566;27.820;2023-05-07T09:22:04;1.17;;;1.07;;
9904;SDS011;4991;43.566;27.820;2023-05-07T09:24:32;2.30;;;1.10;;
9904;SDS011;4991;43.566;27.820;2023-05-07T09:27:03;3.03;;;1.50;;
9904;SDS011;4991;43.566;27.820;2023-05-07T09:29:29;2.13;;;1.20;;
9904;SDS011;4991;43.566;27.820;2023-05-07T09:32:00;1.57;;;1.10;;
9904;SDS011;4991;43.566;27.820;2023-05-07T09:34:30;3.10;;;0.97;;
9904;SDS011;4991;43.566;27.820;2023-05-07T09:36:56;4.90;;;1.63;;
9904;SDS011;4991;43.566;27.820;2023-05-07T09:39:24;1.87;;;1.67;;
9904;SDS011;4991;43.566;27.820;2023-05-07T09:41:50;3.53;;;1.70;;
9904;SDS011;4991;43.566;27.820;2023-05-07T09:44:19;2.37;;;1.40;;
9904;SDS011;4991;43.566;27.820;2023-05-07T09:46:46;3.50;;;1.27;;
9904;SDS011;4991;43.566;27.820;2023-05-07T09:49:22;1.65;;;1.17;;
9904;SDS011;4991;43.566;27.820;2023-05-07T09:51:50;1.35;;;1.20;;
9904;SDS011;4991;43.566;27.820;2023-05-07T09:54:17;1.42;;;1.05;;
9904;SDS011;4991;43.566;27.820;2023-05-07T09:56:44;1.75;;;1.35;;
9904;SDS011;4991;43.566;27.820;2023-05-07T09:59:12;3.88;;;1.60;;
9904;SDS011;4991;43.566;27.820;2023-05-07T10:01:40;2.33;;;1.60;;
9904;SDS011;4991;43.566;27.820;2023-05-07T10:04:07;2.55;;;1.30;;
9904;SDS011;4991;43.566;27.820;2023-05-07T10:06:36;3.42;;;1.48;;
9904;SDS011;4991;43.566;27.820;2023-05-07T10:09:03;1.17;;;1.08;;
9904;SDS011;4991;43.566;27.820;2023-05-07T10:11:36;2.10;;;1.42;;
9904;SDS011;4991;43.566;27.820;2023-05-07T10:14:02;1.60;;;1.20;;
9904;SDS011;4991;43.566;27.820;2023-05-07T10:16:35;1.50;;;1.10;;
9904;SDS011;4991;43.566;27.820;2023-05-07T10:19:05;1.92;;;1.40;;
9904;SDS011;4991;43.566;27.820;2023-05-07T10:21:37;1.42;;;1.23;;
9904;SDS011;4991;43.566;27.820;2023-05-07T10:24:13;1.55;;;1.27;;
9904;SDS011;4991;43.566;27.820;2023-05-07T10:26:46;2.45;;;1.70;;
9904;SDS011;4991;43.566;27.820;2023-05-07T10:32:29;2.63;;;1.30;;
9904;SDS011;4991;43.566;27.820;2023-05-07T10:35:02;1.95;;;1.48;;
9904;SDS011;4991;43.566;27.820;2023-05-07T10:37:30;1.35;;;1.25;;
9904;SDS011;4991;43.566;27.820;2023-05-07T10:39:56;1.50;;;1.35;;
9904;SDS011;4991;43.566;27.820;2023-05-07T10:42:22;1.27;;;1.17;;
9904;SDS011;4991;43.566;27.820;2023-05-07T10:44:48;4.03;;;1.83;;
9904;SDS011;4991;43.566;27.820;2023-05-07T10:47:15;1.83;;;1.15;;
9904;SDS011;4991;43.566;27.820;2023-05-07T10:52:20;1.63;;;1.40;;
9904;SDS011;4991;43.566;27.820;2023-05-07T10:54:48;1.50;;;1.40;;
9904;SDS011;4991;43.566;27.820;2023-05-07T10:57:40;2.15;;;1.30;;
9904;SDS011;4991;43.566;27.820;2023-05-07T11:05:28;2.05;;;1.35;;
9904;SDS011;4991;43.566;27.820;2023-05-07T11:07:56;1.83;;;1.35;;
9904;SDS011;4991;43.566;27.820;2023-05-07T11:10:22;1.45;;;1.30;;
9904;SDS011;4991;43.566;27.820;2023-05-07T11:13:08;1.60;;;1.30;;
9904;SDS011;4991;43.566;27.820;2023-05-07T11:15:35;2.08;;;1.48;;
9904;SDS011;4991;43.566;27.820;2023-05-07T11:18:02;2.17;;;1.70;;
9904;SDS011;4991;43.566;27.820;2023-05-07T11:26:04;1.63;;;1.30;;
9904;SDS011;4991;43.566;27.820;2023-05-07T11:28:31;6.93;;;1.73;;
9904;SDS011;4991;43.566;27.820;2023-05-07T11:31:02;1.20;;;1.10;;
9904;SDS011;4991;43.566;27.820;2023-05-07T11:33:29;1.42;;;1.30;;
9904;SDS011;4991;43.566;27.820;2023-05-07T11:35:55;2.00;;;1.35;;
9904;SDS011;4991;43.566;27.820;2023-05-07T11:38:22;1.45;;;1.35;;
9904;SDS011;4991;43.566;27.820;2023-05-07T11:40:57;2.28;;;1.40;;
9904;SDS011;4991;43.566;27.820;2023-05-07T11:43:26;3.10;;;1.50;;
9904;SDS011;4991;43.566;27.820;2023-05-07T11:45:52;1.40;;;1.30;;
9904;SDS011;4991;43.566;27.820;2023-05-07T11:48:18;1.48;;;1.23;;
9904;SDS011;4991;43.566;27.820;2023-05-07T11:50:53;1.55;;;1.45;;
9904;SDS011;4991;43.566;27.820;2023-05-07T11:53:24;1.40;;;1.20;;
9904;SDS011;4991;43.566;27.820;2023-05-07T11:55:57;2.13;;;1.50;;
9904;SDS011;4991;43.566;27.820;2023-05-07T11:58:24;1.50;;;1.40;;
9904;SDS011;4991;43.566;27.820;2023-05-07T12:00:51;3.63;;;1.30;;
9904;SDS011;4991;43.566;27.820;2023-05-07T12:03:17;3.58;;;1.60;;
9904;SDS011;4991;43.566;27.820;2023-05-07T12:05:44;2.45;;;1.45;;
9904;SDS011;4991;43.566;27.820;2023-05-07T12:08:13;1.77;;;1.42;;
9904;SDS011;4991;43.566;27.820;2023-05-07T12:10:49;1.58;;;1.42;;
9904;SDS011;4991;43.566;27.820;2023-05-07T12:13:18;1.88;;;1.60;;
9904;SDS011;4991;43.566;27.820;2023-05-07T12:18:22;1.42;;;1.13;;
9904;SDS011;4991;43.566;27.820;2023-05-07T12:20:48;4.50;;;1.52;;
9904;SDS011;4991;43.566;27.820;2023-05-07T12:23:15;1.98;;;1.60;;
9904;SDS011;4991;43.566;27.820;2023-05-07T12:25:42;1.63;;;1.23;;
9904;SDS011;4991;43.566;27.820;2023-05-07T12:28:15;1.77;;;1.40;;
9904;SDS011;4991;43.566;27.820;2023-05-07T12:30:45;2.58;;;1.35;;
9904;SDS011;4991;43.566;27.820;2023-05-07T12:33:16;1.40;;;1.30;;
9904;SDS011;4991;43.566;27.820;2023-05-07T12:35:43;1.85;;;1.23;;
9904;SDS011;4991;43.566;27.820;2023-05-07T12:38:09;1.50;;;1.23;;
9904;SDS011;4991;43.566;27.820;2023-05-07T12:40:38;1.75;;;1.35;;
9904;SDS011;4991;43.566;27.820;2023-05-07T12:43:14;1.60;;;1.30;;
9904;SDS011;4991;43.566;27.820;2023-05-07T12:45:44;1.77;;;1.30;;
9904;SDS011;4991;43.566;27.820;2023-05-07T12:48:12;1.73;;;1.48;;
9904;SDS011;4991;43.566;27.820;2023-05-07T12:50:38;2.13;;;1.40;;
9904;SDS011;4991;43.566;27.820;2023-05-07T12:53:04;1.33;;;1.15;;
9904;SDS011;4991;43.566;27.820;2023-05-07T12:55:46;1.63;;;1.40;;
9904;SDS011;4991;43.566;27.820;2023-05-07T12:58:17;1.40;;;1.13;;
9904;SDS011;4991;43.566;27.820;2023-05-07T13:00:44;1.73;;;1.30;;
9904;SDS011;4991;43.566;27.820;2023-05-07T13:03:16;1.77;;;1.30;;
9904;SDS011;4991;43.566;27.820;2023-05-07T13:05:50;5.00;;;1.60;;
9904;SDS011;4991;43.566;27.820;2023-05-07T13:08:38;2.58;;;1.65;;
9904;SDS011;4991;43.566;27.820;2023-05-07T13:11:06;3.53;;;1.40;;
9904;SDS011;4991;43.566;27.820;2023-05-07T13:13:37;1.58;;;1.48;;
9904;SDS011;4991;43.566;27.820;2023-05-07T13:16:04;2.40;;;1.55;;
9904;SDS011;4991;43.566;27.820;2023-05-07T13:18:31;1.50;;;1.40;;
9904;SDS011;4991;43.566;27.820;2023-05-07T13:20:58;3.95;;;1.60;;
9904;SDS011;4991;43.566;27.820;2023-05-07T13:23:25;1.58;;;1.33;;
9904;SDS011;4991;43.566;27.820;2023-05-07T13:25:51;1.55;;;1.20;;
9904;SDS011;4991;43.566;27.820;2023-05-07T13:28:19;2.08;;;1.50;;
9904;SDS011;4991;43.566;27.820;2023-05-07T13:30:45;1.52;;;1.30;;
9904;SDS011;4991;43.566;27.820;2023-05-07T13:33:12;2.85;;;1.35;;
9904;SDS011;4991;43.566;27.820;2023-05-07T13:35:37;1.58;;;1.48;;
9904;SDS011;4991;43.566;27.820;2023-05-07T13:38:04;3.65;;;1.80;;
9904;SDS011;4991;43.566;27.820;2023-05-07T13:40:30;1.40;;;1.30;;
9904;SDS011;4991;43.566;27.820;2023-05-07T13:42:56;1.33;;;1.23;;
9904;SDS011;4991;43.566;27.820;2023-05-07T13:45:24;1.88;;;1.77;;
9904;SDS011;4991;43.566;27.820;2023-05-07T13:47:51;2.78;;;1.33;;
9904;SDS011;4991;43.566;27.820;2023-05-07T13:50:16;2.67;;;1.27;;
9904;SDS011;4991;43.566;27.820;2023-05-07T13:52:45;2.90;;;1.38;;
9904;SDS011;4991;43.566;27.820;2023-05-07T13:55:16;2.42;;;1.40;;
9904;SDS011;4991;43.566;27.820;2023-05-07T13:57:45;1.88;;;1.77;;
9904;SDS011;4991;43.566;27.820;2023-05-07T14:00:12;2.13;;;1.45;;
9904;SDS011;4991;43.566;27.820;2023-05-07T14:02:39;1.40;;;1.20;;
9904;SDS011;4991;43.566;27.820;2023-05-07T14:05:05;1.67;;;1.27;;
9904;SDS011;4991;43.566;27.820;2023-05-07T14:07:31;1.35;;;1.25;;
9904;SDS011;4991;43.566;27.820;2023-05-07T14:09:57;2.92;;;2.63;;
9904;SDS011;4991;43.566;27.820;2023-05-07T14:12:22;5.93;;;4.45;;
9904;SDS011;4991;43.566;27.820;2023-05-07T14:14:48;1.63;;;1.52;;
9904;SDS011;4991;43.566;27.820;2023-05-07T14:17:16;1.80;;;1.45;;
9904;SDS011;4991;43.566;27.820;2023-05-07T14:19:42;2.03;;;1.60;;
9904;SDS011;4991;43.566;27.820;2023-05-07T14:22:08;1.80;;;1.65;;
9904;SDS011;4991;43.566;27.820;2023-05-07T14:24:34;1.35;;;1.25;;
9904;SDS011;4991;43.566;27.820;2023-05-07T14:26:59;1.55;;;1.45;;
9904;SDS011;4991;43.566;27.820;2023-05-07T14:29:25;2.35;;;1.35;;
9904;SDS011;4991;43.566;27.820;2023-05-07T14:31:51;2.72;;;1.70;;
9904;SDS011;4991;43.566;27.820;2023-05-07T14:34:16;6.60;;;1.40;;
9904;SDS011;4991;43.566;27.820;2023-05-07T14:36:42;1.58;;;1.48;;
9904;SDS011;4991;43.566;27.820;2023-05-07T14:39:08;1.85;;;1.40;;
9904;SDS011;4991;43.566;27.820;2023-05-07T14:41:34;3.50;;;1.58;;
9904;SDS011;4991;43.566;27.820;2023-05-07T14:44:00;1.30;;;1.15;;
9904;SDS011;4991;43.566;27.820;2023-05-07T14:46:26;2.17;;;1.60;;
9904;SDS011;4991;43.566;27.820;2023-05-07T14:48:52;1.65;;;1.48;;
9904;SDS011;4991;43.566;27.820;2023-05-07T14:51:18;6.57;;;2.13;;
9904;SDS011;4991;43.566;27.820;2023-05-07T14:53:44;3.00;;;1.80;;
9904;SDS011;4991;43.566;27.820;2023-05-07T14:56:09;3.08;;;2.20;;
9904;SDS011;4991;43.566;27.820;2023-05-07T14:58:35;3.92;;;2.10;;
9904;SDS011;4991;43.566;27.820;2023-05-07T15:01:01;3.30;;;1.77;;
9904;SDS011;4991;43.566;27.820;2023-05-07T15:03:27;5.20;;;2.00;;
9904;SDS011;4991;43.566;27.820;2023-05-07T15:05:53;3.20;;;1.98;;
9904;SDS011;4991;43.566;27.820;2023-05-07T15:08:19;3.28;;;1.95;;
9904;SDS011;4991;43.566;27.820;2023-05-07T15:10:44;3.47;;;2.42;;
9904;SDS011;4991;43.566;27.820;2023-05-07T15:13:11;5.72;;;3.08;;
9904;SDS011;4991;43.566;27.820;2023-05-07T15:15:41;3.22;;;2.35;;
9904;SDS011;4991;43.566;27.820;2023-05-07T15:18:08;4.15;;;1.98;;